Hovedside
METAR-TAF:

METAR-TAF

Lufthavner :

Mo i Rana lufthavn. Røssvoll

Mo i Rana, Norge

breddegrad: 66-22N, lengdegrad: 014-18E, høyde over havet: 7 m

Gjeldene værobservasjon

Denne rapporten ble laget for 19 minutter siden, klokken 04:50 UTC
Vind 2 kt fra skiftende retning
Temperatur 2°C
Luftfuktighet 80%
Trykk 1022 hPa
Sikt 10 km eller mer
ingen skyer under 1500 m og ingen bygeskyer

METAR: ENRA 250450Z VRB02KT CAVOK 02/M01 Q1022

Tid: 07:09 (05:09 UTC)

Varsel

Denne rapporten ble laget for 15 timer og 9 minutter siden, klokken 14:00 UTC
Varsel gyldig fra 24. klokken 15 UTC til 24. klokken 20 UTC
Vind 10 kt fra Øst
Sikt 10 km eller mer
ingen skyer under 1500 m og ingen bygeskyer

TAF: ENRA 241400Z 2415/2420 09010KT CAVOK

Værobservasjoner og værvarsel for over 4000 flyplasser (METAR- og TAF-rapporter).

Tilgjengelige stasjoner er representert av de røde og gule prikkene på kartet.

Hold musepekeren over prikken for å se navnet på stasjonen.

Klikk så for å se værobservasjoner og -varsler.

For å forandre kartet kan du klikke på den grønne knappen med svart kryss for å zoome inn, på den grønne knappen med strek for å zoome ut, eller på de grønne pilene for å se tilstøtende kart.


METAR-TAF: